createdAt,value
2018-08-11T10:57:32.773Z,3.47
2018-08-11T11:03:36.381Z,2.33
2018-08-11T11:09:41.411Z,1.75
2018-08-11T11:15:45.489Z,1.62
2018-08-11T11:21:49.187Z,1.30
2018-08-11T11:27:52.819Z,1.53
2018-08-11T11:33:56.479Z,1.87
2018-08-11T11:40:00.042Z,1.57
2018-08-11T11:46:03.640Z,1.25
2018-08-11T11:52:07.362Z,0.95
2018-08-11T11:58:10.808Z,4.72
2018-08-11T12:04:14.319Z,3.98
2018-08-11T12:10:18.073Z,1.50
2018-08-11T12:16:21.921Z,0.98
2018-08-11T12:22:25.612Z,3.05
2018-08-11T12:28:29.143Z,1.12
2018-08-11T12:34:32.864Z,0.98
2018-08-11T12:40:36.318Z,3.10
2018-08-11T12:46:39.680Z,1.50
2018-08-11T12:52:43.047Z,6.58
2018-08-11T12:58:47.258Z,4.17
2018-08-11T13:04:50.596Z,2.02
2018-08-11T13:10:54.532Z,1.90
2018-08-11T13:16:57.879Z,1.90
2018-08-11T13:23:01.356Z,1.98
2018-08-11T13:29:04.984Z,2.15
2018-08-11T13:35:08.414Z,1.82
2018-08-11T13:41:12.977Z,3.70
2018-08-11T13:47:16.820Z,3.20
2018-08-11T13:53:20.491Z,2.08
2018-08-11T13:59:23.823Z,1.65
2018-08-11T14:05:27.230Z,1.95
2018-08-11T14:11:30.599Z,2.67
2018-08-11T14:17:34.057Z,2.08
2018-08-11T14:23:37.385Z,2.52
2018-08-11T14:29:40.841Z,2.22
2018-08-11T14:35:45.121Z,2.17
2018-08-11T14:41:48.512Z,1.92
2018-08-11T14:47:52.054Z,1.80
2018-08-11T14:53:55.417Z,2.12
2018-08-11T14:59:58.949Z,2.58
2018-08-11T15:06:02.358Z,1.30
2018-08-11T15:12:05.718Z,2.22
2018-08-11T15:18:09.210Z,1.47
2018-08-11T15:24:13.321Z,3.15
2018-08-11T15:30:16.948Z,1.50
2018-08-11T15:36:20.569Z,1.90
2018-08-11T15:42:24.016Z,1.65
2018-08-11T15:48:27.559Z,1.90
2018-08-11T15:54:31.446Z,1.80
2018-08-11T16:00:34.947Z,1.82
2018-08-11T16:06:38.509Z,4.75
2018-08-11T16:12:42.796Z,4.30
2018-08-11T16:18:46.313Z,2.85
2018-08-11T16:24:50.564Z,2.42
2018-08-11T16:30:56.922Z,1.85
2018-08-11T16:37:00.358Z,2.02
2018-08-11T16:43:03.783Z,1.70
2018-08-11T16:49:08.469Z,1.82
2018-08-11T16:55:12.152Z,2.35
2018-08-11T17:01:15.645Z,2.10
2018-08-11T17:07:19.045Z,2.42
2018-08-11T17:13:22.619Z,2.25
2018-08-11T17:19:26.042Z,2.00
2018-08-11T17:25:29.491Z,1.90
2018-08-11T17:31:32.912Z,3.02
2018-08-11T17:37:37.019Z,3.12
2018-08-11T17:43:40.464Z,3.02
2018-08-11T17:49:43.776Z,2.02
2018-08-11T17:55:47.289Z,2.00
2018-08-11T18:01:50.867Z,2.92
2018-08-11T18:07:54.843Z,2.12
2018-08-11T18:13:59.256Z,2.27
2018-08-11T18:20:02.663Z,2.33
2018-08-11T18:26:06.139Z,1.95
2018-08-11T18:32:10.478Z,8.30
2018-08-11T18:38:13.848Z,2.40
2018-08-11T18:44:17.724Z,1.98
2018-08-11T18:50:21.110Z,2.20
2018-08-11T18:56:24.905Z,3.17
2018-08-11T19:02:28.895Z,2.45
2018-08-11T19:08:32.755Z,2.47
2018-08-11T19:14:36.398Z,3.17
2018-08-11T19:20:39.876Z,4.10
2018-08-11T19:26:43.389Z,3.37
2018-08-11T19:32:48.135Z,4.13
2018-08-11T19:38:51.610Z,2.80
2018-08-11T19:44:55.025Z,2.90
2018-08-11T19:50:58.547Z,2.70
2018-08-11T19:57:01.989Z,2.77
2018-08-11T20:03:05.669Z,2.67
2018-08-11T20:09:10.624Z,3.00
2018-08-11T20:15:14.191Z,2.63
2018-08-11T20:21:17.707Z,3.37
2018-08-11T20:27:21.355Z,2.47
2018-08-11T20:33:25.497Z,3.73
2018-08-11T20:39:29.019Z,2.83
2018-08-11T20:45:32.447Z,5.23
2018-08-11T20:51:36.149Z,3.53
2018-08-11T20:57:39.634Z,3.30
2018-08-11T21:03:43.234Z,2.93
2018-08-11T21:09:46.866Z,4.23
2018-08-11T21:15:50.457Z,3.93
2018-08-11T21:21:54.030Z,5.00
2018-08-11T21:27:57.484Z,6.10
2018-08-11T21:34:01.154Z,5.00
2018-08-11T21:40:08.886Z,4.77
2018-08-11T21:46:13.321Z,5.27
2018-08-11T21:52:16.777Z,4.83
2018-08-11T21:58:20.530Z,4.93
2018-08-11T22:04:28.621Z,4.83
2018-08-11T22:10:32.291Z,4.50
2018-08-11T22:16:36.948Z,5.73
2018-08-11T22:22:40.564Z,5.17
2018-08-11T22:28:44.012Z,4.87
2018-08-11T22:34:47.469Z,5.10
2018-08-11T22:40:50.878Z,5.17
2018-08-11T22:46:54.445Z,5.43
2018-08-11T22:52:57.976Z,5.37
2018-08-11T22:59:02.006Z,5.47
2018-08-11T23:05:05.956Z,5.97
2018-08-11T23:11:09.744Z,6.10
2018-08-11T23:17:14.366Z,6.17
2018-08-11T23:23:18.034Z,5.80
2018-08-11T23:29:23.105Z,5.83
2018-08-11T23:35:26.644Z,6.10
2018-08-11T23:41:31.487Z,6.67
2018-08-11T23:47:35.253Z,6.80
2018-08-11T23:53:38.596Z,5.70
2018-08-11T23:59:42.857Z,6.47
